createdAt,value
2018-12-15T00:00:43.147Z,96870.00
2018-12-15T00:05:50.908Z,96864.00
2018-12-15T00:10:54.516Z,96869.00
2018-12-15T00:15:58.078Z,96871.00
2018-12-15T00:21:02.741Z,96867.00
2018-12-15T00:26:06.631Z,96872.00
2018-12-15T00:31:10.107Z,96879.00
2018-12-15T00:36:13.581Z,96883.00
2018-12-15T00:41:17.099Z,96880.00
2018-12-15T00:46:19.976Z,96884.00
2018-12-15T00:51:27.579Z,96887.00
2018-12-15T00:56:32.113Z,96890.00
2018-12-15T01:01:36.702Z,96885.00
2018-12-15T01:06:41.151Z,96895.00
2018-12-15T01:11:49.153Z,96892.00
2018-12-15T01:16:55.199Z,96892.00
2018-12-15T01:22:03.989Z,96911.00
2018-12-15T01:27:10.631Z,96910.00
2018-12-15T01:32:16.504Z,96910.00
2018-12-15T01:37:21.140Z,96916.00
2018-12-15T01:42:26.122Z,96918.00
2018-12-15T01:47:29.602Z,96922.00
2018-12-15T01:52:33.114Z,96918.00
2018-12-15T01:57:37.716Z,96915.00
2018-12-15T02:02:46.371Z,96929.00
2018-12-15T02:07:52.305Z,96923.00
2018-12-15T02:12:57.099Z,96932.00
2018-12-15T02:18:00.602Z,96927.00
2018-12-15T02:23:09.541Z,96926.00
2018-12-15T02:28:15.437Z,96927.00
2018-12-15T02:33:22.145Z,96931.00
2018-12-15T02:38:25.612Z,96934.00
2018-12-15T02:43:34.457Z,96941.00
2018-12-15T02:48:43.239Z,96945.00
2018-12-15T02:53:52.166Z,96942.00
2018-12-15T02:59:00.911Z,96940.00
2018-12-15T03:04:03.766Z,96943.00
2018-12-15T03:09:12.536Z,96951.00
2018-12-15T03:14:21.270Z,96947.00
2018-12-15T03:19:30.188Z,96953.00
2018-12-15T03:24:33.010Z,96953.00
2018-12-15T03:29:41.927Z,96953.00
2018-12-15T03:34:50.682Z,96959.00
2018-12-15T03:39:59.469Z,96956.00
2018-12-15T03:45:02.558Z,96955.00
2018-12-15T03:50:11.412Z,96958.00
2018-12-15T03:55:20.279Z,96961.00
2018-12-15T04:00:29.274Z,96954.00
2018-12-15T04:24:20.315Z,96969.00
2018-12-15T04:29:24.310Z,96962.00
2018-12-15T04:34:33.475Z,96970.00
2018-12-15T04:39:42.290Z,96990.00
2018-12-15T04:44:49.233Z,96976.00
2018-12-15T04:49:56.249Z,96974.00
2018-12-15T04:54:59.735Z,96974.00
2018-12-15T05:00:03.884Z,96975.00
2018-12-15T05:05:08.736Z,96981.00
2018-12-15T05:10:12.221Z,96986.00
2018-12-15T05:15:15.730Z,96992.00
2018-12-15T05:20:19.775Z,96999.00
2018-12-15T05:25:23.293Z,96989.00
2018-12-15T05:30:26.175Z,97002.00
2018-12-15T05:35:29.714Z,97001.00
2018-12-15T05:40:33.334Z,97000.00
2018-12-15T05:45:40.909Z,97005.00
2018-12-15T05:50:44.744Z,97011.00
2018-12-15T05:55:48.263Z,97011.00
2018-12-15T06:00:52.366Z,97023.00
2018-12-15T06:05:56.451Z,97023.00
2018-12-15T06:10:59.438Z,97028.00
2018-12-15T06:16:02.479Z,97023.00
2018-12-15T06:21:05.414Z,97031.00
2018-12-15T06:26:11.397Z,97040.00
2018-12-15T06:31:15.278Z,97032.00
2018-12-15T06:36:18.369Z,97044.00
2018-12-15T06:41:22.286Z,97049.00
2018-12-15T06:46:25.290Z,97042.00
2018-12-15T06:51:28.325Z,97042.00
2018-12-15T06:56:31.875Z,97047.00
2018-12-15T07:01:38.939Z,97048.00
2018-12-15T07:06:47.913Z,97051.00
2018-12-15T07:11:51.759Z,97050.00
2018-12-15T07:16:55.298Z,97049.00
2018-12-15T07:21:58.327Z,97053.00
2018-12-15T07:27:01.301Z,97055.00
2018-12-15T07:32:04.213Z,97057.00
2018-12-15T07:37:07.390Z,97060.00
2018-12-15T07:42:10.818Z,97060.00
2018-12-15T07:47:13.771Z,97061.00
2018-12-15T07:52:16.738Z,97057.00
2018-12-15T07:57:19.758Z,97059.00
2018-12-15T08:02:22.775Z,97056.00
2018-12-15T08:07:27.285Z,97065.00
2018-12-15T08:12:52.404Z,97070.00
2018-12-15T08:17:55.409Z,97070.00
2018-12-15T08:22:59.314Z,97077.00
2018-12-15T08:28:03.131Z,97077.00
2018-12-15T08:33:10.826Z,97069.00
2018-12-15T08:38:14.148Z,97066.00
2018-12-15T08:43:17.166Z,97072.00
2018-12-15T08:48:20.406Z,97075.00
2018-12-15T08:53:23.504Z,97073.00
2018-12-15T08:58:26.568Z,97070.00
2018-12-15T09:03:29.553Z,97077.00
2018-12-15T09:08:32.551Z,97081.00
2018-12-15T09:13:35.450Z,97076.00
2018-12-15T09:18:38.394Z,97080.00
2018-12-15T09:23:41.349Z,97080.00
2018-12-15T09:28:44.859Z,97082.00
2018-12-15T09:33:48.465Z,97088.00
2018-12-15T09:38:51.547Z,97085.00
2018-12-15T09:43:54.680Z,97081.00
2018-12-15T09:48:57.630Z,97075.00
2018-12-15T09:54:00.465Z,97073.00
2018-12-15T09:59:03.570Z,97068.00
2018-12-15T10:04:07.346Z,97060.00
2018-12-15T10:09:11.355Z,97058.00
2018-12-15T10:14:14.432Z,97051.00
2018-12-15T10:19:17.438Z,97050.00
2018-12-15T10:24:20.362Z,97040.00
2018-12-15T10:29:29.410Z,97034.00
2018-12-15T10:34:33.082Z,97023.00
2018-12-15T10:39:36.111Z,97027.00
2018-12-15T10:44:39.308Z,97026.00
2018-12-15T10:49:42.247Z,97016.00
2018-12-15T10:54:45.857Z,97014.00
2018-12-15T10:59:48.844Z,97010.00
2018-12-15T11:04:52.630Z,96997.00
2018-12-15T11:09:56.454Z,97012.00
2018-12-15T11:15:00.904Z,97002.00
2018-12-15T11:20:04.374Z,97006.00
2018-12-15T11:25:07.777Z,97063.00
2018-12-15T11:30:10.957Z,97003.00
2018-12-15T11:35:17.231Z,97003.00
2018-12-15T11:40:21.607Z,97001.00
2018-12-15T11:45:26.163Z,97006.00
2018-12-15T11:50:31.294Z,96991.00
2018-12-15T11:55:36.212Z,96984.00
2018-12-15T12:00:40.536Z,96991.00
2018-12-15T12:05:43.661Z,96975.00
2018-12-15T12:10:51.216Z,96975.00
2018-12-15T12:15:54.539Z,96976.00
2018-12-15T12:21:02.628Z,96973.00
2018-12-15T12:26:05.943Z,96959.00
2018-12-15T12:31:10.309Z,96956.00
2018-12-15T12:36:14.092Z,96958.00
2018-12-15T12:41:17.443Z,96960.00
2018-12-15T12:46:21.238Z,96950.00
2018-12-15T12:51:26.323Z,96945.00
2018-12-15T12:56:30.649Z,96958.00
2018-12-15T13:01:34.985Z,96964.00
2018-12-15T13:06:40.522Z,96956.00
2018-12-15T13:11:43.726Z,96957.00
2018-12-15T13:16:47.239Z,96954.00
2018-12-15T13:21:50.684Z,96959.00
2018-12-15T13:26:59.176Z,96966.00
2018-12-15T13:32:01.283Z,96958.00
2018-12-15T13:37:04.548Z,96949.00
2018-12-15T13:42:08.670Z,96956.00
2018-12-15T13:47:13.690Z,96959.00
2018-12-15T13:52:18.892Z,96956.00
2018-12-15T13:57:21.997Z,96954.00
2018-12-15T14:02:25.866Z,96968.00
2018-12-15T14:07:29.459Z,96958.00
2018-12-15T14:12:34.487Z,96959.00
2018-12-15T14:17:37.729Z,96973.00
2018-12-15T14:22:41.700Z,96964.00
2018-12-15T14:27:45.062Z,96963.00
2018-12-15T14:32:48.342Z,96964.00
2018-12-15T14:37:54.763Z,96962.00
2018-12-15T14:42:58.218Z,96959.00
2018-12-15T14:48:01.508Z,96970.00
2018-12-15T14:53:05.921Z,96963.00
2018-12-15T14:58:10.359Z,96965.00
2018-12-15T15:03:14.545Z,96980.00
2018-12-15T15:08:17.938Z,96956.00
2018-12-15T15:13:24.386Z,96948.00
2018-12-15T15:18:27.499Z,96950.00
2018-12-15T15:23:31.941Z,96950.00
2018-12-15T15:28:36.284Z,96940.00
2018-12-15T15:33:39.579Z,96947.00
2018-12-15T15:38:43.911Z,96940.00
2018-12-15T15:43:47.370Z,96938.00
2018-12-15T15:48:50.711Z,96940.00
2018-12-15T15:53:53.831Z,96937.00
2018-12-15T15:59:02.658Z,96937.00
2018-12-15T16:04:06.727Z,96934.00
2018-12-15T16:09:15.833Z,96934.00
2018-12-15T16:14:20.502Z,96938.00
2018-12-15T16:19:29.657Z,96937.00
2018-12-15T16:24:35.754Z,96932.00
2018-12-15T16:29:39.782Z,96922.00
2018-12-15T16:34:48.975Z,96916.00
2018-12-15T16:39:52.315Z,96912.00
2018-12-15T16:44:57.404Z,96905.00
2018-12-15T16:50:02.620Z,96901.00
2018-12-15T16:55:06.440Z,96905.00
2018-12-15T17:00:14.390Z,96897.00
2018-12-15T17:05:24.995Z,96910.00
2018-12-15T17:10:34.200Z,96916.00
2018-12-15T17:15:43.885Z,96915.00
2018-12-15T17:20:56.604Z,96914.00
2018-12-15T17:26:05.107Z,96900.00
2018-12-15T17:31:39.767Z,96892.00
2018-12-15T17:36:51.608Z,96886.00
2018-12-15T18:03:43.166Z,96871.00
2018-12-15T18:08:46.611Z,96862.00
2018-12-15T18:19:30.681Z,96855.00
2018-12-15T18:24:34.838Z,96856.00
2018-12-15T18:29:43.782Z,96844.00
2018-12-15T18:34:49.897Z,96834.00
2018-12-15T18:39:54.956Z,96828.00
2018-12-15T18:45:05.623Z,96821.00
2018-12-15T18:50:15.774Z,96819.00
2018-12-15T18:55:25.927Z,96810.00
2018-12-15T19:00:30.279Z,96821.00
2018-12-15T19:05:39.388Z,96817.00
2018-12-15T19:10:48.166Z,96812.00
2018-12-15T19:15:56.929Z,96773.00
2018-12-15T19:20:59.949Z,96794.00
2018-12-15T19:26:08.740Z,96783.00
2018-12-15T19:31:17.675Z,96780.00
2018-12-15T19:36:39.006Z,96770.00
2018-12-15T19:41:42.130Z,96764.00
2018-12-15T19:46:52.378Z,96757.00
2018-12-15T20:03:06.176Z,96739.00
2018-12-15T20:08:12.338Z,96573.00
2018-12-15T20:13:16.136Z,96723.00
2018-12-15T20:18:38.498Z,96718.00
2018-12-15T20:23:42.316Z,96718.00
2018-12-15T20:28:51.974Z,96709.00
2018-12-15T20:33:56.735Z,96685.00
2018-12-15T20:44:41.544Z,96679.00
2018-12-15T20:49:41.382Z,96679.00
2018-12-15T20:54:44.466Z,96670.00
2018-12-15T21:05:28.679Z,96643.00
2018-12-15T21:10:40.987Z,96657.00
2018-12-15T21:15:53.199Z,96653.00
2018-12-15T21:20:56.850Z,96638.00
2018-12-15T21:26:01.295Z,96638.00
2018-12-15T21:31:05.427Z,96455.00
2018-12-15T21:36:08.638Z,96625.00
2018-12-15T21:41:11.821Z,96622.00
2018-12-15T21:51:46.469Z,96596.00
2018-12-15T21:56:52.652Z,96600.00
2018-12-15T22:01:57.386Z,96587.00
2018-12-15T22:07:01.348Z,96567.00
2018-12-15T22:12:06.489Z,96578.00
2018-12-15T22:22:47.564Z,96554.00
2018-12-15T22:27:51.578Z,96542.00
2018-12-15T22:32:55.114Z,96525.00
2018-12-15T22:38:01.296Z,96526.00
2018-12-15T22:54:38.919Z,96511.00
2018-12-15T22:59:42.868Z,96497.00
2018-12-15T23:10:23.922Z,96478.00
2018-12-15T23:15:29.150Z,96479.00
2018-12-15T23:20:40.466Z,96462.00
2018-12-15T23:25:43.473Z,96456.00
2018-12-15T23:30:53.831Z,96450.00
2018-12-15T23:36:01.028Z,96458.00
2018-12-15T23:41:06.130Z,96448.00
2018-12-15T23:46:15.131Z,96448.00
2018-12-15T23:57:03.640Z,96434.00
